Time;durP1;ratioP1;P1;durP2;ratioP2;P2;SDS_P1;SDS_P2;PMS_P1;PMS_P2;Temp;Humidity;BMP_temperature;BMP_pressure;BME280_temperature;BME280_humidity;BME280_pressure;Samples;Min_cycle;Max_cycle;Signal;HPM_P1;HPM_P2
2022/08/11 00:00:53;;;;;;;16.48;15.77;;;;;;;;;;5115364;28;20193;-75
2022/08/11 00:03:20;;;;;;;16.70;16.00;;;;;;;;;;5115385;28;20189;-75
2022/08/11 00:05:49;;;;;;;16.65;15.95;;;;;;;;;;5115516;28;20193;-75
2022/08/11 00:08:21;;;;;;;16.25;15.60;;;;;;;;;;5115218;28;20205;-75
2022/08/11 00:10:51;;;;;;;16.00;15.40;;;;;;;;;;5115329;28;20201;-75
2022/08/11 00:13:19;;;;;;;15.55;14.95;;;;;;;;;;5115413;28;20185;-74
2022/08/11 00:15:46;;;;;;;15.30;14.70;;;;;;;;;;5115194;28;20229;-76
2022/08/11 00:18:13;;;;;;;13.95;13.45;;;;;;;;;;5114896;28;20203;-75
2022/08/11 00:20:42;;;;;;;13.85;13.35;;;;;;;;;;5115042;28;20185;-74
2022/08/11 00:23:11;;;;;;;14.10;13.60;;;;;;;;;;5115070;28;20233;-77
2022/08/11 00:25:39;;;;;;;13.85;13.35;;;;;;;;;;5115199;28;20204;-76
2022/08/11 00:28:23;;;;;;;14.45;13.95;;;;;;;;;;5115035;28;20200;-76
2022/08/11 00:30:50;;;;;;;14.20;13.70;;;;;;;;;;5115115;28;20601;-75
2022/08/11 00:33:18;;;;;;;14.20;13.70;;;;;;;;;;5114675;28;20236;-74
2022/08/11 00:35:45;;;;;;;15.05;14.45;;;;;;;;;;5114657;28;20274;-75
2022/08/11 00:38:14;;;;;;;13.77;13.27;;;;;;;;;;5114879;28;20201;-75
2022/08/11 00:40:44;;;;;;;14.00;13.50;;;;;;;;;;5114639;28;20200;-75
2022/08/11 00:43:17;;;;;;;14.18;13.68;;;;;;;;;;5114845;28;20193;-75
2022/08/11 00:45:51;;;;;;;13.77;13.27;;;;;;;;;;5114580;28;20224;-74
2022/08/11 00:48:26;;;;;;;14.30;13.80;;;;;;;;;;5113678;28;20234;-75
2022/08/11 00:51:00;;;;;;;14.05;13.55;;;;;;;;;;5114560;28;20188;-75
2022/08/11 00:53:39;;;;;;;14.20;13.70;;;;;;;;;;5114458;28;20224;-75
2022/08/11 00:56:27;;;;;;;14.13;13.63;;;;;;;;;;5114604;28;20220;-74
2022/08/11 00:59:12;;;;;;;14.25;13.75;;;;;;;;;;5114306;28;20711;-75
2022/08/11 01:01:48;;;;;;;14.15;13.65;;;;;;;;;;5114173;28;20195;-74
2022/08/11 01:04:32;;;;;;;13.80;13.30;;;;;;;;;;5114481;28;20259;-74
2022/08/11 01:07:23;;;;;;;13.55;13.07;;;;;;;;;;5114141;28;20197;-74
2022/08/11 01:09:59;;;;;;;23.23;18.92;;;;;;;;;;5038796;28;20192;-75
2022/08/11 01:12:39;;;;;;;12.90;12.50;;;;;;;;;;5114026;28;20636;-74
2022/08/11 01:15:24;;;;;;;12.32;11.93;;;;;;;;;;5114171;28;20184;-74
2022/08/11 01:18:05;;;;;;;12.30;11.90;;;;;;;;;;5100333;28;20196;-75
2022/08/11 01:20:53;;;;;;;11.40;11.00;;;;;;;;;;5113646;28;20278;-75
2022/08/11 01:23:35;;;;;;;11.68;11.27;;;;;;;;;;5113823;28;20264;-74
2022/08/11 01:26:30;;;;;;;11.23;10.93;;;;;;;;;;5113615;28;20642;-74
2022/08/11 01:29:16;;;;;;;11.00;10.70;;;;;;;;;;5113687;28;20181;-75
2022/08/11 01:31:57;;;;;;;11.07;10.77;;;;;;;;;;5113610;28;20646;-75
2022/08/11 01:34:42;;;;;;;11.40;11.05;;;;;;;;;;5113937;28;20189;-75
2022/08/11 01:37:36;;;;;;;11.02;10.73;;;;;;;;;;5113310;28;20228;-75
2022/08/11 01:40:24;;;;;;;10.10;9.80;;;;;;;;;;5065494;28;20667;-75
2022/08/11 01:45:50;;;;;;;9.35;9.05;;;;;;;;;;5113768;28;20187;-74
2022/08/11 01:48:22;;;;;;;9.70;9.40;;;;;;;;;;5113169;28;20189;-74
2022/08/11 01:50:57;;;;;;;9.73;9.43;;;;;;;;;;5113584;28;20193;-75
2022/08/11 01:53:29;;;;;;;9.40;9.10;;;;;;;;;;5113154;28;20313;-75
2022/08/11 01:56:05;;;;;;;9.73;9.43;;;;;;;;;;5113075;28;20217;-74
2022/08/11 01:58:42;;;;;;;9.60;9.30;;;;;;;;;;5113019;28;20670;-74
2022/08/11 02:01:16;;;;;;;9.82;9.52;;;;;;;;;;5112987;28;20193;-74
2022/08/11 02:03:48;;;;;;;9.75;9.45;;;;;;;;;;5112939;28;20185;-74
2022/08/11 02:09:08;;;;;;;9.60;9.30;;;;;;;;;;5113381;28;20188;-74
2022/08/11 02:11:35;;;;;;;9.90;9.60;;;;;;;;;;5112898;28;20193;-75
2022/08/11 02:14:12;;;;;;;10.00;9.70;;;;;;;;;;5112781;28;20683;-74
2022/08/11 02:17:00;;;;;;;10.35;10.05;;;;;;;;;;5112729;28;20308;-74
2022/08/11 02:25:08;;;;;;;9.70;9.40;;;;;;;;;;5113067;28;20330;-75
2022/08/11 02:27:39;;;;;;;9.73;9.43;;;;;;;;;;5112604;28;20197;-74
2022/08/11 02:30:09;;;;;;;9.68;9.38;;;;;;;;;;5112587;28;20271;-74
2022/08/11 02:35:26;;;;;;;9.82;9.52;;;;;;;;;;5113141;28;20560;-75
2022/08/11 02:37:58;;;;;;;10.13;9.82;;;;;;;;;;5112837;28;20583;-75
2022/08/11 02:40:31;;;;;;;9.70;9.40;;;;;;;;;;5112441;28;20189;-73
2022/08/11 02:43:05;;;;;;;9.88;9.57;;;;;;;;;;5112449;28;20186;-74
2022/08/11 02:45:40;;;;;;;10.02;9.73;;;;;;;;;;5112417;28;20184;-74
2022/08/11 02:51:05;;;;;;;9.43;9.13;;;;;;;;;;5112816;28;20188;-74
2022/08/11 02:53:37;;;;;;;9.68;9.38;;;;;;;;;;5112316;28;20189;-76
2022/08/11 02:56:08;;;;;;;9.30;9.00;;;;;;;;;;5112290;28;20216;-74
2022/08/11 02:58:41;;;;;;;9.10;8.80;;;;;;;;;;5112260;28;20236;-77
2022/08/11 03:01:18;;;;;;;9.20;8.90;;;;;;;;;;5112437;28;20196;-75
2022/08/11 03:03:51;;;;;;;9.60;9.30;;;;;;;;;;5112200;28;20611;-74
2022/08/11 03:06:27;;;;;;;9.70;9.40;;;;;;;;;;5112253;28;20621;-76
2022/08/11 03:08:57;;;;;;;10.15;9.85;;;;;;;;;;5112198;28;20185;-74
2022/08/11 03:17:13;;;;;;;10.07;9.77;;;;;;;;;;5116601;28;20215;-76
2022/08/11 03:19:46;;;;;;;9.75;9.45;;;;;;;;;;5116254;28;20265;-74
2022/08/11 03:22:20;;;;;;;10.00;9.70;;;;;;;;;;5116212;28;20677;-74
2022/08/11 03:24:56;;;;;;;10.02;9.73;;;;;;;;;;5116181;28;20188;-74
2022/08/11 03:27:29;;;;;;;10.10;9.80;;;;;;;;;;5116078;28;20600;-74
2022/08/11 03:30:03;;;;;;;10.20;9.90;;;;;;;;;;5115971;28;20238;-73
2022/08/11 03:32:34;;;;;;;10.30;10.00;;;;;;;;;;5115986;28;20189;-72
2022/08/11 03:35:01;;;;;;;10.55;10.25;;;;;;;;;;5115859;28;20189;-74
2022/08/11 03:37:49;;;;;;;10.55;10.25;;;;;;;;;;5115804;28;20235;-73
2022/08/11 03:43:13;;;;;;;11.60;11.20;;;;;;;;;;5114909;28;20177;-74
2022/08/11 03:45:56;;;;;;;11.70;11.30;;;;;;;;;;5115679;28;20197;-73
2022/08/11 03:48:28;;;;;;;11.77;11.38;;;;;;;;;;5115861;28;20247;-74
2022/08/11 03:50:59;;;;;;;11.90;11.50;;;;;;;;;;5115648;28;20189;-73
2022/08/11 03:53:40;;;;;;;11.82;11.43;;;;;;;;;;5115821;28;20682;-72
2022/08/11 03:56:31;;;;;;;11.32;10.93;;;;;;;;;;5115508;28;20701;-73
2022/08/11 03:59:11;;;;;;;12.00;11.60;;;;;;;;;;5115475;28;20197;-73
2022/08/11 04:01:48;;;;;;;12.18;11.77;;;;;;;;;;5115385;28;20555;-74
2022/08/11 04:04:34;;;;;;;13.60;13.10;;;;;;;;;;5115376;28;20184;-73
2022/08/11 04:07:21;;;;;;;14.77;14.27;;;;;;;;;;5075099;28;20200;-73
2022/08/11 04:10:07;;;;;;;15.13;14.52;;;;;;;;;;5108501;28;20239;-76
2022/08/11 04:12:57;;;;;;;14.50;14.00;;;;;;;;;;5115117;28;20635;-75
2022/08/11 04:16:00;;;;;;;15.25;14.65;;;;;;;;;;5039917;28;20271;-73
2022/08/11 04:18:48;;;;;;;15.18;14.57;;;;;;;;;;5115099;28;20197;-74
2022/08/11 04:21:26;;;;;;;15.35;14.75;;;;;;;;;;5114996;28;20203;-73
2022/08/11 04:24:03;;;;;;;15.48;14.88;;;;;;;;;;5113560;28;20220;-74
2022/08/11 04:26:56;;;;;;;16.45;15.75;;;;;;;;;;5115783;28;20268;-73
2022/08/11 04:29:36;;;;;;;16.33;15.63;;;;;;;;;;5115713;28;20189;-73
2022/08/11 04:32:10;;;;;;;16.48;15.77;;;;;;;;;;5114768;28;20670;-73
2022/08/11 04:34:42;;;;;;;16.45;15.85;;;;;;;;;;5114770;28;20276;-74
2022/08/11 04:40:06;;;;;;;17.80;17.10;;;;;;;;;;5115055;28;20180;-74
2022/08/11 04:45:49;;;;;;;17.27;16.58;;;;;;;;;;5090553;28;20208;-75
2022/08/11 05:03:03;;;;;;;16.20;15.50;;;;;;;;;;5114374;28;20192;-74
2022/08/11 05:05:35;;;;;;;16.92;16.23;;;;;;;;;;5114129;28;20204;-75
2022/08/11 05:08:20;;;;;;;17.85;17.13;;;;;;;;;;5114123;28;20248;-74
2022/08/11 05:10:56;;;;;;;17.73;16.92;;;;;;;;;;5113947;28;20200;-75
2022/08/11 05:35:35;;;;;;;15.38;14.77;;;;;;;;;;5113540;28;20208;-74
2022/08/11 05:57:28;;;;;;;18.65;17.92;;;;;;;;;;5113427;28;20590;-73
2022/08/11 06:00:00;;;;;;;13.98;13.57;;;;;;;;;;5113691;28;20191;-75
2022/08/11 06:02:28;;;;;;;18.42;17.63;;;;;;;;;;5113012;28;20238;-73
2022/08/11 06:04:57;;;;;;;13.60;13.20;;;;;;;;;;5113051;28;20193;-75
2022/08/11 06:07:28;;;;;;;13.80;13.40;;;;;;;;;;5112948;28;20221;-73
2022/08/11 06:09:55;;;;;;;13.95;13.48;;;;;;;;;;5113262;28;20216;-74
2022/08/11 06:12:24;;;;;;;16.23;15.63;;;;;;;;;;5112868;28;20288;-74
2022/08/11 06:14:54;;;;;;;15.35;14.85;;;;;;;;;;5112769;28;20190;-74
2022/08/11 06:17:25;;;;;;;16.10;15.50;;;;;;;;;;5112757;28;20221;-74
2022/08/11 06:19:56;;;;;;;16.10;15.50;;;;;;;;;;5112559;28;20233;-75
2022/08/11 06:22:23;;;;;;;16.00;15.40;;;;;;;;;;5112802;28;20240;-74
2022/08/11 06:24:53;;;;;;;15.40;14.90;;;;;;;;;;5112583;28;20227;-73
2022/08/11 06:27:21;;;;;;;14.88;14.38;;;;;;;;;;5112646;28;20190;-74
2022/08/11 06:29:50;;;;;;;14.80;14.30;;;;;;;;;;5112579;28;20200;-74
2022/08/11 06:32:18;;;;;;;15.00;14.50;;;;;;;;;;5112588;28;20189;-73
2022/08/11 06:34:55;;;;;;;15.43;14.82;;;;;;;;;;5112819;28;20197;-74
2022/08/11 06:37:25;;;;;;;15.18;14.60;;;;;;;;;;5112489;28;20217;-75
2022/08/11 06:39:57;;;;;;;15.45;14.85;;;;;;;;;;5112482;28;20284;-73
2022/08/11 06:42:32;;;;;;;15.55;14.95;;;;;;;;;;5112424;28;20189;-73
2022/08/11 06:45:03;;;;;;;16.58;15.88;;;;;;;;;;5112759;28;20184;-76
2022/08/11 06:47:31;;;;;;;14.90;14.30;;;;;;;;;;5111621;28;20223;-74
2022/08/11 06:52:46;;;;;;;57.55;52.33;;;;;;;;;;5112772;28;20253;-75
2022/08/11 07:00:26;;;;;;;16.33;15.63;;;;;;;;;;5112847;28;20224;-75
2022/08/11 07:00:46;;;;;;;16.90;16.10;;;;;;;;;;5112758;28;20189;-75
2022/08/11 07:03:16;;;;;;;16.70;15.90;;;;;;;;;;5112564;28;20223;-75
2022/08/11 07:05:49;;;;;;;17.00;16.20;;;;;;;;;;5112320;28;20642;-76
2022/08/11 07:28:56;;;;;;;16.15;15.45;;;;;;;;;;5112672;28;20242;-74
2022/08/11 07:31:26;;;;;;;16.17;15.48;;;;;;;;;;5111981;28;20189;-72
2022/08/11 07:33:59;;;;;;;16.20;15.50;;;;;;;;;;5111962;28;20189;-75
2022/08/11 07:36:28;;;;;;;16.52;15.73;;;;;;;;;;5111954;28;20195;-72
2022/08/11 07:38:57;;;;;;;16.63;15.82;;;;;;;;;;5112325;28;20280;-74
2022/08/11 07:41:27;;;;;;;16.90;16.10;;;;;;;;;;5111909;28;20197;-72
2022/08/11 07:43:56;;;;;;;16.45;15.65;;;;;;;;;;5112186;28;20630;-75
2022/08/11 07:54:39;;;;;;;17.38;16.48;;;;;;;;;;5112524;28;20311;-73
2022/08/11 08:19:07;;;;;;;16.48;15.57;;;;;;;;;;5115037;28;20231;-76
2022/08/11 08:21:34;;;;;;;16.73;15.82;;;;;;;;;;5115084;28;20197;-75
2022/08/11 08:24:03;;;;;;;16.65;15.75;;;;;;;;;;5115240;28;20197;-75
2022/08/11 08:32:03;;;;;;;17.65;16.65;;;;;;;;;;5115652;28;20262;-73
2022/08/11 08:34:30;;;;;;;17.05;16.15;;;;;;;;;;5114901;28;20246;-74
2022/08/11 08:36:57;;;;;;;17.50;16.50;;;;;;;;;;5114693;28;20196;-72
2022/08/11 08:39:24;;;;;;;17.50;16.50;;;;;;;;;;5115155;28;20605;-75
2022/08/11 08:41:54;;;;;;;17.80;16.80;;;;;;;;;;5114992;28;20204;-75
2022/08/11 08:44:22;;;;;;;18.05;17.05;;;;;;;;;;5114931;28;20275;-74
2022/08/11 08:46:51;;;;;;;18.13;17.13;;;;;;;;;;5114984;28;20295;-73
2022/08/11 08:49:20;;;;;;;18.05;17.05;;;;;;;;;;5114444;28;20704;-75
2022/08/11 08:51:49;;;;;;;17.70;16.70;;;;;;;;;;5115351;28;20193;-74
2022/08/11 08:54:17;;;;;;;18.25;17.25;;;;;;;;;;5114347;28;20200;-74
2022/08/11 08:56:45;;;;;;;17.88;16.98;;;;;;;;;;5114695;28;20197;-75
2022/08/11 08:59:14;;;;;;;17.55;16.65;;;;;;;;;;5114317;28;20207;-74
2022/08/11 09:01:44;;;;;;;18.05;17.05;;;;;;;;;;5114348;28;20208;-75
2022/08/11 09:04:11;;;;;;;17.95;17.05;;;;;;;;;;5114275;28;20200;-76
2022/08/11 09:06:41;;;;;;;17.90;16.90;;;;;;;;;;5114136;28;20189;-75
2022/08/11 09:09:10;;;;;;;17.73;16.73;;;;;;;;;;5113340;28;20197;-74
2022/08/11 09:11:52;;;;;;;17.77;16.77;;;;;;;;;;5114292;28;20204;-75
2022/08/11 09:14:21;;;;;;;17.52;16.52;;;;;;;;;;5114082;28;20204;-75
2022/08/11 09:16:49;;;;;;;17.75;16.75;;;;;;;;;;5113973;28;20192;-76
2022/08/11 09:19:17;;;;;;;17.70;16.70;;;;;;;;;;5113688;28;20236;-76
2022/08/11 09:26:57;;;;;;;17.45;16.45;;;;;;;;;;5114107;28;20295;-75
2022/08/11 09:27:15;;;;;;;18.35;17.25;;;;;;;;;;5082510;28;20200;-75
2022/08/11 09:29:44;;;;;;;18.05;16.95;;;;;;;;;;5113744;28;20651;-75
2022/08/11 09:32:13;;;;;;;17.95;16.95;;;;;;;;;;5113607;28;20189;-73
2022/08/11 09:34:40;;;;;;;18.10;17.10;;;;;;;;;;5113658;28;20229;-74
2022/08/11 09:45:23;;;;;;;18.80;17.60;;;;;;;;;;5113538;28;20208;-74
2022/08/11 09:47:50;;;;;;;18.45;17.35;;;;;;;;;;5113651;28;20581;-74
2022/08/11 09:50:18;;;;;;;18.13;17.02;;;;;;;;;;5113212;28;20575;-74
2022/08/11 09:52:47;;;;;;;20.92;19.35;;;;;;;;;;5113299;28;20284;-75
2022/08/11 09:55:14;;;;;;;18.08;17.02;;;;;;;;;;5113199;28;20193;-75
2022/08/11 10:00:31;;;;;;;18.50;17.40;;;;;;;;;;5113494;28;20238;-75
2022/08/11 10:03:01;;;;;;;18.75;17.65;;;;;;;;;;5113092;28;20189;-73
2022/08/11 10:08:14;;;;;;;19.13;17.92;;;;;;;;;;5113550;28;20219;-76
2022/08/11 10:10:41;;;;;;;19.23;18.02;;;;;;;;;;5112858;28;20573;-76
2022/08/11 10:13:10;;;;;;;19.33;18.13;;;;;;;;;;5112895;28;20675;-74
2022/08/11 10:15:41;;;;;;;19.23;18.02;;;;;;;;;;5112761;28;20235;-74
2022/08/11 10:20:57;;;;;;;19.20;18.00;;;;;;;;;;5112890;28;20196;-74
2022/08/11 10:28:53;;;;;;;19.27;18.08;;;;;;;;;;5113344;28;20188;-75
2022/08/11 10:34:07;;;;;;;19.58;18.38;;;;;;;;;;5113336;28;20184;-73
2022/08/11 10:36:41;;;;;;;19.80;18.52;;;;;;;;;;5112696;28;20284;-75
2022/08/11 10:39:08;;;;;;;19.15;17.95;;;;;;;;;;5112462;28;20690;-73
2022/08/11 10:44:20;;;;;;;19.73;18.45;;;;;;;;;;5113408;28;20203;-74
2022/08/11 10:49:33;;;;;;;19.65;18.42;;;;;;;;;;5112617;28;20193;-73
2022/08/11 11:00:15;;;;;;;19.33;18.13;;;;;;;;;;5112491;28;20188;-73
2022/08/11 11:02:44;;;;;;;19.90;18.70;;;;;;;;;;5112585;28;20197;-74
2022/08/11 11:05:15;;;;;;;20.05;18.75;;;;;;;;;;5113167;28;20197;-75
2022/08/11 11:07:47;;;;;;;20.77;19.48;;;;;;;;;;5112567;28;20573;-75
2022/08/11 11:10:14;;;;;;;20.25;18.95;;;;;;;;;;5113122;28;20213;-74
2022/08/11 11:18:18;;;;;;;19.85;18.55;;;;;;;;;;5081086;28;20232;-75
2022/08/11 11:20:47;;;;;;;20.35;19.05;;;;;;;;;;5112155;28;20211;-74
2022/08/11 11:23:17;;;;;;;19.90;18.60;;;;;;;;;;5112420;28;20201;-76
2022/08/11 11:26:05;;;;;;;20.10;18.80;;;;;;;;;;5112620;28;20223;-75
2022/08/11 11:28:46;;;;;;;19.73;18.42;;;;;;;;;;5112675;28;20189;-74
2022/08/11 11:31:21;;;;;;;18.88;17.63;;;;;;;;;;5112200;28;20643;-74
2022/08/11 11:33:58;;;;;;;19.30;18.00;;;;;;;;;;5116044;28;20185;-76
2022/08/11 11:36:28;;;;;;;19.58;18.27;;;;;;;;;;5116668;28;20258;-77
2022/08/11 11:38:57;;;;;;;19.92;18.63;;;;;;;;;;5115734;28;20264;-74
2022/08/11 11:41:25;;;;;;;20.40;19.10;;;;;;;;;;5116214;28;20258;-73
2022/08/11 11:43:53;;;;;;;20.25;18.95;;;;;;;;;;5115832;28;20254;-75
2022/08/11 11:46:20;;;;;;;19.63;18.33;;;;;;;;;;5115736;28;20205;-74
2022/08/11 11:48:47;;;;;;;20.17;18.88;;;;;;;;;;5116027;28;20201;-77
2022/08/11 11:51:16;;;;;;;20.35;19.05;;;;;;;;;;5115924;28;20193;-78
2022/08/11 11:53:44;;;;;;;19.80;18.50;;;;;;;;;;5115655;28;20657;-72
2022/08/11 11:56:11;;;;;;;19.90;18.60;;;;;;;;;;5115601;28;20228;-79
2022/08/11 12:01:24;;;;;;;19.73;18.52;;;;;;;;;;5115962;28;20726;-76
2022/08/11 12:03:53;;;;;;;19.73;18.52;;;;;;;;;;5115458;28;20250;-78
2022/08/11 12:06:21;;;;;;;19.38;18.17;;;;;;;;;;5115429;28;20197;-77
2022/08/11 12:08:49;;;;;;;20.00;18.70;;;;;;;;;;5115371;28;20280;-72
2022/08/11 12:14:03;;;;;;;20.02;18.73;;;;;;;;;;5115713;28;20184;-76
2022/08/11 12:16:30;;;;;;;20.27;18.98;;;;;;;;;;5115953;28;20243;-75
2022/08/11 12:18:58;;;;;;;19.90;18.60;;;;;;;;;;5114845;28;20320;-73
2022/08/11 12:21:28;;;;;;;19.73;18.42;;;;;;;;;;5115390;28;20193;-74
2022/08/11 12:29:23;;;;;;;19.95;18.65;;;;;;;;;;5101571;28;20280;-72
2022/08/11 12:31:50;;;;;;;19.65;18.35;;;;;;;;;;5114857;28;20284;-74
2022/08/11 12:34:17;;;;;;;19.63;18.33;;;;;;;;;;5114801;28;20189;-79
2022/08/11 12:36:49;;;;;;;19.70;18.48;;;;;;;;;;5114808;28;20280;-73
2022/08/11 12:45:26;;;;;;;19.65;18.45;;;;;;;;;;5114680;28;20718;-79
2022/08/11 12:53:12;;;;;;;19.95;18.65;;;;;;;;;;5114968;28;20207;-73
2022/08/11 12:58:26;;;;;;;20.10;18.75;;;;;;;;;;5114948;28;20315;-74
2022/08/11 13:06:24;;;;;;;19.70;18.30;;;;;;;;;;5114322;28;20270;-77
2022/08/11 13:08:53;;;;;;;19.80;18.40;;;;;;;;;;5114510;28;20602;-75
2022/08/11 13:14:05;;;;;;;20.17;18.77;;;;;;;;;;5114484;28;20188;-79
2022/08/11 13:17:19;;;;;;;19.67;18.38;;;;;;;;;;5113946;28;20197;-75
2022/08/11 13:19:21;;;;;;;19.88;18.48;;;;;;;;;;5113863;28;20244;-74
2022/08/11 13:21:48;;;;;;;20.33;18.92;;;;;;;;;;5113822;28;20193;-75
2022/08/11 13:24:17;;;;;;;20.42;19.02;;;;;;;;;;5113881;28;20197;-74
2022/08/11 13:26:44;;;;;;;21.10;19.70;;;;;;;;;;5114048;28;20230;-76
2022/08/11 13:29:11;;;;;;;20.33;18.92;;;;;;;;;;5113771;28;20193;-75
2022/08/11 13:31:41;;;;;;;19.77;18.38;;;;;;;;;;5113668;28;20189;-74
2022/08/11 13:34:09;;;;;;;20.33;18.95;;;;;;;;;;5113931;28;20565;-75
2022/08/11 13:36:36;;;;;;;20.40;19.00;;;;;;;;;;5113620;28;20220;-76
2022/08/11 13:39:03;;;;;;;21.60;20.10;;;;;;;;;;5113437;28;20266;-74
2022/08/11 13:41:38;;;;;;;20.83;19.42;;;;;;;;;;5113613;28;20193;-75
2022/08/11 13:44:05;;;;;;;20.08;18.67;;;;;;;;;;5113462;28;20190;-77
2022/08/11 13:46:32;;;;;;;20.42;19.02;;;;;;;;;;5113453;28;20250;-75
2022/08/11 13:49:00;;;;;;;19.92;18.58;;;;;;;;;;5113373;28;20193;-75
2022/08/11 13:51:37;;;;;;;20.15;18.75;;;;;;;;;;5113313;28;20199;-75
2022/08/11 13:54:05;;;;;;;20.15;18.75;;;;;;;;;;5113255;28;20555;-76
2022/08/11 13:56:35;;;;;;;20.48;18.98;;;;;;;;;;5112900;28;20232;-74
2022/08/11 13:59:03;;;;;;;20.50;19.08;;;;;;;;;;5113039;28;20225;-75
2022/08/11 14:01:31;;;;;;;19.98;18.58;;;;;;;;;;5113366;28;20200;-76
2022/08/11 14:04:03;;;;;;;22.75;21.25;;;;;;;;;;5113108;28;20661;-78
2022/08/11 14:06:30;;;;;;;21.65;20.15;;;;;;;;;;5113339;28;20288;-75
2022/08/11 14:08:58;;;;;;;22.77;21.17;;;;;;;;;;5113054;28;20254;-77
2022/08/11 14:14:13;;;;;;;20.70;19.20;;;;;;;;;;5113669;28;20272;-75
2022/08/11 14:16:42;;;;;;;20.95;19.45;;;;;;;;;;5113164;28;20235;-80
2022/08/11 14:19:11;;;;;;;20.67;19.17;;;;;;;;;;5112759;28;20281;-76
2022/08/11 14:24:24;;;;;;;20.00;18.60;;;;;;;;;;5113222;28;20180;-76
2022/08/11 14:26:51;;;;;;;20.30;18.90;;;;;;;;;;5112981;28;20201;-76
2022/08/11 14:29:20;;;;;;;20.75;19.35;;;;;;;;;;5112987;28;20204;-77
2022/08/11 14:31:49;;;;;;;20.58;19.08;;;;;;;;;;5112560;28;20193;-75
2022/08/11 14:34:20;;;;;;;20.48;19.05;;;;;;;;;;5112962;28;20220;-75
2022/08/11 14:36:48;;;;;;;20.65;19.15;;;;;;;;;;5112670;28;20185;-79
2022/08/11 14:39:17;;;;;;;20.65;19.15;;;;;;;;;;5113349;28;20309;-77
2022/08/11 14:47:15;;;;;;;20.40;18.90;;;;;;;;;;5113006;28;20292;-76
2022/08/11 14:49:42;;;;;;;20.23;18.83;;;;;;;;;;5112880;28;20189;-80
2022/08/11 14:52:10;;;;;;;20.42;18.92;;;;;;;;;;5112408;28;20189;-77
2022/08/11 14:57:22;;;;;;;20.98;19.48;;;;;;;;;;5113104;28;20184;-77
2022/08/11 14:59:50;;;;;;;21.30;19.90;;;;;;;;;;5112304;28;20717;-79
2022/08/11 15:05:03;;;;;;;20.38;18.98;;;;;;;;;;5112727;28;20184;-75
2022/08/11 15:07:31;;;;;;;20.88;19.48;;;;;;;;;;5113362;28;20232;-77
2022/08/11 15:09:59;;;;;;;20.42;19.02;;;;;;;;;;5116534;28;20236;-76
2022/08/11 15:12:26;;;;;;;20.35;18.95;;;;;;;;;;5116477;28;20197;-75
2022/08/11 15:17:39;;;;;;;20.02;18.70;;;;;;;;;;5116739;28;20181;-75
2022/08/11 15:25:37;;;;;;;21.15;19.75;;;;;;;;;;5116671;28;20206;-77
2022/08/11 15:39:13;;;;;;;19.90;18.50;;;;;;;;;;5116304;28;20705;-77
2022/08/11 15:47:25;;;;;;;19.75;18.35;;;;;;;;;;5114619;28;20197;-77
2022/08/11 15:49:54;;;;;;;19.70;18.33;;;;;;;;;;5115777;28;20189;-75
2022/08/11 15:52:23;;;;;;;19.85;18.45;;;;;;;;;;5115616;28;20651;-80
2022/08/11 15:54:50;;;;;;;19.88;18.48;;;;;;;;;;5115582;28;20574;-75
2022/08/11 16:05:30;;;;;;;20.80;19.30;;;;;;;;;;5115609;28;20617;-78
2022/08/11 16:07:58;;;;;;;20.27;18.80;;;;;;;;;;5115580;28;20201;-81
2022/08/11 16:10:26;;;;;;;20.23;18.73;;;;;;;;;;5115304;28;20280;-76
2022/08/11 16:16:13;;;;;;;20.85;19.35;;;;;;;;;;5115481;28;20193;-76
2022/08/11 16:18:42;;;;;;;20.45;18.95;;;;;;;;;;5115128;28;20240;-76
2022/08/11 16:21:11;;;;;;;22.70;21.10;;;;;;;;;;5115112;28;20685;-76
2022/08/11 16:23:39;;;;;;;20.50;19.00;;;;;;;;;;5115526;28;20197;-79
2022/08/11 16:26:06;;;;;;;20.33;18.83;;;;;;;;;;5115112;28;20197;-77
2022/08/11 16:28:34;;;;;;;20.83;19.33;;;;;;;;;;5114967;28;20193;-78
2022/08/11 16:31:01;;;;;;;20.65;19.15;;;;;;;;;;5115218;28;20276;-74
2022/08/11 16:33:29;;;;;;;20.80;19.30;;;;;;;;;;5114969;28;20292;-78
2022/08/11 16:38:43;;;;;;;21.65;20.05;;;;;;;;;;5115063;28;20177;-79
2022/08/11 16:41:12;;;;;;;21.20;19.70;;;;;;;;;;5114756;28;20204;-74
2022/08/11 16:49:12;;;;;;;21.35;19.85;;;;;;;;;;5114816;28;20776;-75
2022/08/11 16:51:40;;;;;;;21.30;19.80;;;;;;;;;;5114675;28;20201;-78
2022/08/11 16:54:07;;;;;;;20.95;19.55;;;;;;;;;;5114488;28;20197;-80
2022/08/11 16:56:36;;;;;;;21.20;19.70;;;;;;;;;;5114547;28;20189;-76
2022/08/11 16:59:14;;;;;;;20.33;18.92;;;;;;;;;;5114298;28;20681;-76
2022/08/11 17:01:41;;;;;;;19.77;18.48;;;;;;;;;;5114879;28;20192;-81
2022/08/11 17:17:54;;;;;;;20.33;18.98;;;;;;;;;;5113304;28;20204;-75
2022/08/11 17:20:21;;;;;;;19.75;18.35;;;;;;;;;;5113882;28;20328;-79
2022/08/11 17:25:34;;;;;;;19.85;18.45;;;;;;;;;;5113984;28;20543;-75
2022/08/11 17:28:02;;;;;;;19.88;18.58;;;;;;;;;;5114059;28;20681;-81
2022/08/11 17:35:55;;;;;;;19.67;18.38;;;;;;;;;;5082282;28;20250;-79
2022/08/11 17:38:24;;;;;;;20.75;19.35;;;;;;;;;;5113719;28;20193;-79
2022/08/11 17:49:07;;;;;;;21.30;19.90;;;;;;;;;;5113913;28;20234;-79
2022/08/11 17:59:55;;;;;;;21.10;19.70;;;;;;;;;;5113679;28;20698;-77
2022/08/11 18:05:09;;;;;;;21.33;19.92;;;;;;;;;;5113564;28;20276;-76
